createdAt,value
2023-04-17T00:03:53.072Z,6.87
2023-04-17T00:08:56.069Z,7.21
2023-04-17T00:13:58.490Z,7.20
2023-04-17T00:19:00.955Z,7.09
2023-04-17T00:24:03.400Z,6.59
2023-04-17T00:29:05.912Z,7.07
2023-04-17T00:34:08.360Z,7.16
2023-04-17T00:39:10.965Z,6.70
2023-04-17T00:44:13.490Z,7.08
2023-04-17T00:49:15.973Z,7.04
2023-04-17T00:54:19.507Z,6.34
2023-04-17T00:59:22.396Z,6.97
2023-04-17T01:04:24.943Z,6.76
2023-04-17T01:09:27.986Z,6.41
2023-04-17T01:14:30.271Z,6.71
2023-04-17T01:19:32.815Z,6.87
2023-04-17T01:24:35.273Z,6.85
2023-04-17T01:29:37.689Z,6.69
2023-04-17T01:34:40.340Z,6.83
2023-04-17T01:39:42.817Z,4.26
2023-04-17T01:44:45.303Z,6.71
2023-04-17T01:49:48.598Z,6.78
2023-04-17T01:54:51.001Z,6.61
2023-04-17T01:59:53.467Z,6.12
2023-04-17T02:04:55.929Z,6.57
2023-04-17T02:09:58.353Z,5.82
2023-04-17T02:15:01.575Z,4.64
2023-04-17T02:20:08.000Z,6.65
2023-04-17T02:25:10.390Z,6.64
2023-04-17T02:30:13.077Z,6.63
2023-04-17T02:35:15.732Z,4.45
2023-04-17T02:40:18.337Z,6.58
2023-04-17T02:45:20.909Z,5.78
2023-04-17T02:50:23.408Z,5.94
2023-04-17T02:55:48.655Z,5.93
2023-04-17T03:01:00.806Z,4.54
2023-04-17T03:06:04.762Z,5.60
2023-04-17T03:11:07.671Z,4.72
2023-04-17T03:16:10.322Z,5.62
2023-04-17T03:21:14.110Z,4.72
2023-04-17T03:26:16.460Z,5.58
2023-04-17T03:31:19.020Z,3.40
2023-04-17T03:36:21.667Z,3.96
2023-04-17T03:41:24.390Z,5.77
2023-04-17T03:46:27.050Z,5.61
2023-04-17T03:51:29.805Z,5.58
2023-04-17T03:56:37.388Z,6.01
2023-04-17T04:01:41.408Z,6.55
2023-04-17T04:06:54.793Z,5.15
2023-04-17T04:11:57.892Z,4.71
2023-04-17T04:17:00.982Z,5.40
2023-04-17T04:22:06.715Z,3.54
2023-04-17T04:27:24.592Z,6.81
2023-04-17T04:32:28.800Z,5.98
2023-04-17T04:37:32.875Z,6.41
2023-04-17T04:42:42.608Z,5.78
2023-04-17T04:47:51.067Z,5.27
2023-04-17T04:52:54.506Z,4.17
2023-04-17T04:58:10.436Z,6.41
2023-04-17T05:03:14.681Z,6.39
2023-04-17T05:08:17.463Z,5.72
2023-04-17T05:13:30.680Z,7.49
2023-04-17T05:18:33.746Z,5.47
2023-04-17T05:23:37.155Z,6.24
2023-04-17T05:28:41.315Z,7.68
2023-04-17T05:33:43.975Z,7.33
2023-04-17T05:38:48.584Z,7.02
2023-04-17T05:43:51.495Z,7.83
2023-04-17T05:48:56.082Z,7.94
2023-04-17T05:53:59.159Z,7.99
2023-04-17T05:59:01.922Z,7.67
2023-04-17T06:04:04.863Z,7.34
2023-04-17T06:09:09.644Z,7.58
2023-04-17T06:14:13.034Z,7.89
2023-04-17T06:19:16.483Z,8.22
2023-04-17T06:24:20.482Z,5.90
2023-04-17T06:29:24.035Z,5.51
2023-04-17T06:34:27.106Z,8.69
2023-04-17T06:39:32.076Z,6.34
2023-04-17T06:44:36.300Z,8.32
2023-04-17T06:49:38.647Z,8.08
2023-04-17T06:54:41.090Z,8.53
2023-04-17T06:59:43.422Z,8.92
2023-04-17T07:04:45.953Z,8.93
2023-04-17T07:09:48.597Z,8.93
2023-04-17T07:14:51.525Z,8.96
2023-04-17T07:19:53.914Z,8.34
2023-04-17T07:24:56.211Z,9.41
2023-04-17T07:30:01.642Z,8.76
2023-04-17T07:35:05.623Z,9.45
2023-04-17T07:40:10.051Z,9.31
2023-04-17T07:45:12.306Z,9.15
2023-04-17T07:50:14.700Z,10.01
2023-04-17T07:55:17.324Z,9.93
2023-04-17T08:00:19.927Z,10.13
2023-04-17T08:05:24.037Z,10.12
2023-04-17T08:10:30.078Z,10.47
2023-04-17T08:15:32.482Z,10.22
2023-04-17T08:20:34.783Z,10.31
2023-04-17T08:25:38.206Z,10.71
2023-04-17T08:30:40.511Z,10.14
2023-04-17T08:35:42.922Z,9.94
2023-04-17T08:40:49.508Z,10.64
2023-04-17T08:45:55.847Z,10.28
2023-04-17T08:50:58.588Z,10.90
2023-04-17T08:56:07.529Z,10.44
2023-04-17T09:01:18.020Z,10.63
2023-04-17T09:06:20.392Z,10.89
2023-04-17T09:11:22.781Z,11.39
2023-04-17T09:16:26.038Z,11.85
2023-04-17T09:21:29.450Z,12.19
2023-04-17T09:26:33.608Z,12.23
2023-04-17T09:31:37.886Z,12.27
2023-04-17T09:36:42.402Z,12.05
2023-04-17T09:41:45.213Z,12.61
2023-04-17T09:46:48.022Z,12.30
2023-04-17T09:51:51.116Z,11.97
2023-04-17T09:56:56.356Z,12.57
2023-04-17T10:01:58.923Z,12.71
2023-04-17T10:07:03.359Z,13.08
2023-04-17T10:12:06.292Z,12.45
2023-04-17T10:17:31.981Z,13.28
2023-04-17T10:22:35.125Z,13.21
2023-04-17T10:27:37.745Z,13.42
2023-04-17T10:32:45.986Z,13.48
2023-04-17T10:37:51.087Z,13.50
2023-04-17T10:43:20.188Z,13.55
2023-04-17T10:48:24.584Z,13.53
2023-04-17T10:53:45.386Z,13.57
2023-04-17T10:58:59.365Z,12.88
2023-04-17T11:04:01.799Z,13.38
2023-04-17T11:09:08.431Z,13.56
2023-04-17T11:14:18.576Z,13.74
2023-04-17T11:19:23.384Z,12.50
2023-04-17T11:24:30.855Z,13.52
2023-04-17T11:29:33.430Z,13.33
2023-04-17T11:34:37.516Z,13.88
2023-04-17T11:39:42.774Z,13.44
2023-04-17T11:44:45.207Z,13.56
2023-04-17T11:49:47.569Z,13.96
2023-04-17T11:54:58.020Z,13.71
2023-04-17T12:00:00.297Z,13.57
2023-04-17T12:05:18.662Z,14.22
2023-04-17T12:10:24.238Z,14.19
2023-04-17T12:15:28.413Z,14.24
2023-04-17T12:20:30.817Z,13.59
2023-04-17T12:25:34.182Z,13.87
2023-04-17T12:30:40.049Z,14.31
2023-04-17T12:35:42.394Z,14.17
2023-04-17T12:40:45.930Z,13.66
2023-04-17T12:45:48.672Z,14.33
2023-04-17T12:50:51.201Z,14.02
2023-04-17T12:55:53.584Z,14.34
2023-04-17T13:00:56.069Z,14.17
2023-04-17T13:05:58.504Z,13.34
2023-04-17T13:11:03.984Z,13.22
2023-04-17T13:16:06.759Z,13.36
2023-04-17T13:21:10.324Z,13.44
2023-04-17T13:26:12.722Z,14.27
2023-04-17T13:31:15.107Z,14.20
2023-04-17T13:36:17.500Z,14.17
2023-04-17T13:41:19.931Z,13.99
2023-04-17T13:46:22.553Z,14.01
2023-04-17T13:51:24.916Z,13.72
2023-04-17T13:56:27.713Z,13.48
2023-04-17T14:01:30.172Z,12.98
2023-04-17T14:06:34.079Z,13.56
2023-04-17T14:11:36.464Z,14.06
2023-04-17T14:16:40.277Z,13.73
2023-04-17T14:21:43.215Z,13.75
2023-04-17T14:26:45.680Z,14.00
2023-04-17T14:31:48.224Z,13.58
2023-04-17T14:36:50.832Z,13.29
2023-04-17T14:41:53.327Z,13.61
2023-04-17T14:46:57.146Z,13.44
2023-04-17T14:51:59.621Z,14.01
2023-04-17T14:57:02.084Z,13.69
2023-04-17T15:02:07.566Z,13.84
2023-04-17T15:07:10.095Z,13.23
2023-04-17T15:12:12.521Z,13.69
2023-04-17T15:17:15.106Z,13.12
2023-04-17T15:22:17.658Z,13.36
2023-04-17T15:27:20.458Z,13.21
2023-04-17T15:32:23.057Z,12.63
2023-04-17T15:37:25.564Z,13.12
2023-04-17T15:42:28.235Z,13.24
2023-04-17T15:47:33.002Z,13.20
2023-04-17T15:52:35.449Z,13.13
2023-04-17T15:57:39.316Z,13.08
2023-04-17T16:02:42.673Z,12.47
2023-04-17T16:07:46.053Z,12.98
2023-04-17T16:12:48.440Z,11.72
2023-04-17T16:17:51.092Z,11.90
2023-04-17T16:22:53.631Z,12.40
2023-04-17T16:27:56.210Z,11.78
2023-04-17T16:32:58.819Z,12.45
2023-04-17T16:38:02.074Z,12.31
2023-04-17T16:43:04.497Z,11.52
2023-04-17T16:48:09.345Z,12.58
2023-04-17T16:53:11.970Z,11.75
2023-04-17T16:58:14.474Z,11.36
2023-04-17T17:03:18.199Z,12.05
2023-04-17T17:08:20.601Z,11.49
2023-04-17T17:13:23.669Z,12.12
2023-04-17T17:18:26.451Z,11.96
2023-04-17T17:23:28.858Z,11.73
2023-04-17T17:28:31.395Z,11.12
2023-04-17T17:33:34.685Z,12.00
2023-04-17T17:38:37.181Z,11.79
2023-04-17T17:43:39.539Z,11.88
2023-04-17T17:48:42.108Z,11.82
2023-04-17T17:53:44.430Z,11.10
2023-04-17T17:58:46.899Z,11.33
2023-04-17T18:03:49.923Z,11.51
2023-04-17T18:08:53.304Z,11.59
2023-04-17T18:13:55.680Z,11.39
2023-04-17T18:19:00.158Z,11.22
2023-04-17T18:24:02.524Z,11.35
2023-04-17T18:29:05.136Z,10.54
2023-04-17T18:34:07.808Z,10.96
2023-04-17T18:39:10.399Z,10.94
2023-04-17T18:44:15.108Z,11.32
2023-04-17T18:49:17.620Z,11.26
2023-04-17T18:54:22.306Z,11.12
2023-04-17T18:59:26.547Z,10.48
2023-04-17T19:04:30.832Z,10.38
2023-04-17T19:09:33.249Z,11.07
2023-04-17T19:14:35.652Z,10.16
2023-04-17T19:19:38.391Z,10.97
2023-04-17T19:24:53.175Z,10.34
2023-04-17T19:29:57.185Z,10.89
2023-04-17T19:35:00.047Z,10.70
2023-04-17T19:40:14.255Z,10.31
2023-04-17T19:45:21.830Z,10.09
2023-04-17T19:50:27.926Z,10.60
2023-04-17T19:55:30.293Z,10.50
2023-04-17T20:00:32.967Z,10.40
2023-04-17T20:05:36.086Z,10.45
2023-04-17T20:10:38.666Z,10.16
2023-04-17T20:15:41.775Z,10.52
2023-04-17T20:20:44.223Z,10.02
2023-04-17T20:25:46.936Z,10.36
2023-04-17T20:30:49.834Z,10.01
2023-04-17T20:35:52.093Z,10.07
2023-04-17T20:40:54.435Z,9.74
2023-04-17T20:45:56.805Z,10.27
2023-04-17T20:51:02.371Z,9.17
2023-04-17T20:56:04.997Z,10.03
2023-04-17T21:01:07.368Z,9.25
2023-04-17T21:06:09.961Z,9.56
2023-04-17T21:11:12.303Z,9.87
2023-04-17T21:16:14.858Z,9.65
2023-04-17T21:21:17.266Z,9.90
2023-04-17T21:26:19.843Z,9.67
2023-04-17T21:31:22.185Z,9.43
2023-04-17T21:36:25.261Z,9.58
2023-04-17T21:41:27.580Z,9.53
2023-04-17T21:46:29.998Z,9.68
2023-04-17T21:51:32.384Z,9.05
2023-04-17T21:56:34.760Z,9.39
2023-04-17T22:01:37.313Z,8.14
2023-04-17T22:06:39.873Z,9.28
2023-04-17T22:11:42.142Z,7.87
2023-04-17T22:16:44.626Z,8.94
2023-04-17T22:21:46.945Z,8.69
2023-04-17T22:26:49.324Z,8.63
2023-04-17T22:31:51.717Z,8.89
2023-04-17T22:36:54.211Z,8.59
2023-04-17T22:41:57.623Z,9.16
2023-04-17T22:47:00.955Z,9.13
2023-04-17T22:52:03.390Z,8.23
2023-04-17T22:57:05.881Z,8.43
2023-04-17T23:02:08.473Z,8.13
2023-04-17T23:07:11.022Z,8.46
2023-04-17T23:12:13.393Z,8.45
2023-04-17T23:17:15.707Z,8.94
2023-04-17T23:22:18.051Z,8.93
2023-04-17T23:27:20.651Z,8.01
2023-04-17T23:32:25.735Z,8.87
2023-04-17T23:37:28.197Z,8.64
2023-04-17T23:42:31.204Z,8.81
2023-04-17T23:47:33.759Z,7.90
2023-04-17T23:52:36.186Z,8.21
2023-04-17T23:57:38.840Z,8.61
